Latest Weather Observations for Flinders Reef

IDQ60801

Issued at 8:32 pm EST Friday 26 February 2021 (issued every 10 minutes, with the page automatically refreshed every 10 minutes)

About weather observations | Map of weather stations | Latest weather observations for QLD | Other Formats
Station Details ID: 200783 Name: FLINDERS REEF Lat: -17.72 Lon: 148.45 Height: 2.6 m
Data from the previous 72 hours. | See also: Recent months at Flinders Reef
Date/Time
EST
Temp
°C
App
Temp
°C
Dew
Point
°C
Rel
Hum
%
Delta-T
°C
Wind Press
QNH
hPa
Press
MSL
hPa
Rain since
9am
mm
Dir  Spd
km/h
Gust
km/h
Spd
kts
Gust
kts
26/08:30pm 27.5 - - - - ENE 28 32 15 17 1005.7 1005.6 -
26/08:00pm 27.5 - - - - ENE 28 33 15 18 1005.5 1005.4 -
26/07:30pm 27.3 - - - - E 28 32 15 17 1005.1 1005.0 -
26/07:00pm 27.4 - - - - E 26 32 14 17 1004.9 1004.8 -
26/06:30pm 26.5 - - - - ENE 28 32 15 17 1004.7 1004.6 -
26/06:00pm 26.2 - - - - ENE 22 30 12 16 1004.5 1004.4 -
26/05:30pm 25.3 - - - - ENE 15 19 8 10 1004.2 1004.1 -
26/05:00pm 25.7 - - - - ENE 17 20 9 11 1004.0 1003.9 -
26/04:30pm 25.8 - - - - E 22 26 12 14 1003.8 1003.7 -
26/04:00pm 25.8 - - - - E 20 22 11 12 1003.6 1003.5 -
26/03:30pm 26.6 - - - - ENE 15 17 8 9 1003.5 1003.4 -
26/03:00pm 26.5 - - - - ENE 13 15 7 8 1003.6 1003.5 -
26/02:30pm 26.5 - - - - ENE 9 11 5 6 1003.9 1003.8 -
26/02:00pm 25.4 - - - - NE 11 17 6 9 1004.2 1004.1 -
26/01:30pm 24.6 - - - - N 19 22 10 12 1004.7 1004.6 -
26/01:00pm 25.5 - - - - NNE 35 43 19 23 1005.0 1004.9 -
26/12:46pm 26.3 - - - - ENE 19 41 10 22 1005.1 1005.0 -
26/12:30pm 27.6 - - - - E 15 19 8 10 1005.1 1005.0 -
26/12:00pm 26.5 - - - - ENE 13 17 7 9 1005.5 1005.4 -
26/11:30am 28.1 - - - - ENE 17 19 9 10 1006.0 1005.9 -
26/11:00am 28.6 - - - - E 4 17 2 9 1006.1 1006.0 -
26/10:30am 26.9 - - - - E 13 20 7 11 1006.4 1006.3 -
26/10:00am 26.4 - - - - E 20 22 11 12 1006.5 1006.4 -
26/09:30am 26.2 - - - - E 20 26 11 14 1006.3 1006.2 -
26/09:00am 25.4 - - - - E 26 30 14 16 1006.4 1006.3 -
26/08:30am 26.8 - - - - E 26 30 14 16 1005.9 1005.8 -
26/08:00am 26.7 - - - - ESE 26 32 14 17 1005.6 1005.5 -
26/07:30am 26.8 - - - - ESE 26 32 14 17 1005.4 1005.3 -
26/07:00am 26.3 - - - - ESE 26 30 14 16 1004.9 1004.8 -
26/06:30am 25.8 - - - - ESE 26 32 14 17 1004.7 1004.6 -
26/06:00am 26.1 - - - - E 24 28 13 15 1004.2 1004.1 -
26/05:30am 26.6 - - - - E 26 30 14 16 1003.9 1003.8 -
26/05:00am 26.5 - - - - ENE 26 32 14 17 1003.7 1003.6 -
26/04:30am 26.5 - - - - ENE 28 32 15 17 1003.8 1003.7 -
26/04:00am 26.0 - - - - ENE 22 28 12 15 1003.8 1003.7 -
26/03:30am 25.7 - - - - ENE 26 30 14 16 1003.5 1003.4 -
26/03:00am 25.5 - - - - ENE 30 37 16 20 1003.7 1003.6 -
26/02:30am 26.2 - - - - ESE 33 39 18 21 1003.9 1003.8 -
26/02:00am 26.4 - - - - ESE 33 37 18 20 1004.1 1004.0 -
26/01:30am 25.0 - - - - SE 26 30 14 16 1004.7 1004.6 -
26/01:00am 25.1 - - - - ESE 28 33 15 18 1005.1 1005.0 -
26/12:49am 25.5 - - - - E 24 33 13 18 1005.3 1005.2 -
26/12:46am 25.0 - - - - E 22 44 12 24 1005.7 - -
26/12:36am 24.9 - - - - E 30 46 16 25 1005.6 1005.5 -
26/12:30am 25.5 - - - - ESE 28 37 15 20 1005.7 1005.6 -
26/12:00am 25.1 - - - - ENE 24 35 13 19 1006.1 1006.0 -
 
Date/Time
EST
Temp
°C
App
Temp
°C
Dew
Point
°C
Rel
Hum
%
Delta-T
°C
Wind Press
QNH
hPa
Press
MSL
hPa
Rain since
9am
mm
Dir  Spd
km/h
Gust
km/h
Spd
kts
Gust
kts
25/11:49pm 25.0 - - - - E 37 46 20 25 1006.2 - -
25/11:48pm 25.3 - - - - E 28 46 15 25 1006.0 1005.9 -
25/11:30pm 26.1 - - - - SE 24 28 13 15 1006.4 1006.3 -
25/11:00pm 25.9 - - - - SE 24 28 13 15 1006.6 1006.5 -
25/10:30pm 25.8 - - - - SE 26 30 14 16 1006.8 1006.7 -
25/10:00pm 25.6 - - - - SE 32 35 17 19 1006.8 1006.7 -
25/09:30pm 26.1 - - - - ESE 22 26 12 14 1006.7 1006.6 -
25/09:00pm 25.9 - - - - E 24 28 13 15 1006.6 1006.5 -
25/08:30pm 24.8 - - - - ENE 17 20 9 11 1006.4 1006.3 -
25/08:00pm 24.3 - - - - ENE 19 28 10 15 1006.3 1006.2 -
25/07:30pm 26.2 - - - - ESE 13 17 7 9 1006.1 1006.0 -
25/07:00pm 25.2 - - - - S 17 20 9 11 1005.7 1005.6 -
25/06:30pm 26.3 - - - - SE 15 19 8 10 1005.5 1005.4 -
25/06:00pm 26.9 - - - - ESE 13 15 7 8 1005.1 1005.0 -
25/05:30pm 26.9 - - - - ENE 15 17 8 9 1004.9 1004.8 -
25/05:00pm 26.8 - - - - ENE 17 20 9 11 1004.8 1004.7 -
25/04:30pm 25.5 - - - - ENE 19 22 10 12 1004.5 1004.4 -
25/04:00pm 25.5 - - - - E 17 20 9 11 1004.5 1004.4 -
25/03:30pm 25.0 - - - - ENE 17 20 9 11 1004.5 1004.4 -
25/03:00pm 24.4 - - - - E 19 22 10 12 1004.5 1004.4 -
25/02:30pm 23.6 - - - - ENE 24 28 13 15 1005.1 1005.0 -
25/02:00pm 23.6 - - - - ENE 28 33 15 18 1005.5 1005.4 -
25/01:30pm 24.7 - - - - ENE 43 54 23 29 1005.6 1005.5 -
25/01:24pm 24.4 - - - - E 41 54 22 29 1005.7 1005.6 -
25/01:13pm 24.4 - - - - E 39 44 21 24 1005.6 - -
25/01:00pm 26.0 - - - - ESE 33 41 18 22 1005.6 1005.5 -
25/12:30pm 26.5 - - - - ESE 32 35 17 19 1005.8 1005.7 -
25/12:00pm 25.8 - - - - ESE 28 33 15 18 1006.4 1006.3 -
25/11:30am 27.8 - - - - ENE 20 26 11 14 1006.7 1006.6 -
25/11:00am 27.1 - - - - E 24 28 13 15 1006.8 1006.7 -
25/10:30am 26.7 - - - - E 26 32 14 17 1007.2 1007.1 -
25/10:00am 26.5 - - - - E 28 30 15 16 1007.2 1007.1 -
25/09:30am 26.7 - - - - E 22 28 12 15 1007.4 1007.3 -
25/09:00am 27.6 - - - - ENE 20 24 11 13 1007.1 1007.0 -
25/08:30am 27.6 - - - - ENE 22 26 12 14 1007.0 1006.9 -
25/08:00am 27.8 - - - - ENE 22 26 12 14 1006.9 1006.8 -
25/07:30am 27.4 - - - - NE 28 33 15 18 1006.5 1006.4 -
25/07:00am 26.4 - - - - NE 32 35 17 19 1006.0 1005.9 -
25/06:30am 26.9 - - - - ENE 35 41 19 22 1005.7 1005.6 -
25/06:00am 26.8 - - - - NE 28 35 15 19 1005.4 1005.3 -
25/05:30am 27.7 - - - - ENE 30 35 16 19 1004.9 1004.8 -
25/05:00am 27.7 - - - - ENE 32 37 17 20 1004.9 1004.8 -
25/04:30am 27.9 - - - - E 30 33 16 18 1004.7 1004.6 -
25/04:00am 28.2 - - - - ENE 30 33 16 18 1004.8 1004.7 -
25/03:30am 28.3 - - - - ENE 32 37 17 20 1004.7 1004.6 -
25/03:00am 27.7 - - - - ENE 32 39 17 21 1004.8 1004.7 -
25/02:30am 27.7 - - - - ENE 32 37 17 20 1005.0 1004.9 -
25/02:00am 27.5 - - - - ENE 32 35 17 19 1005.3 1005.2 -
25/01:30am 27.7 - - - - ENE 32 39 17 21 1005.9 1005.8 -
25/01:00am 27.7 - - - - ENE 32 35 17 19 1006.3 1006.2 -
25/12:30am 27.7 - - - - ENE 32 37 17 20 1006.6 1006.5 -
25/12:00am 27.5 - - - - ENE 28 32 15 17 1006.6 1006.5 -
 
Date/Time
EST
Temp
°C
App
Temp
°C
Dew
Point
°C
Rel
Hum
%
Delta-T
°C
Wind Press
QNH
hPa
Press
MSL
hPa
Rain since
9am
mm
Dir  Spd
km/h
Gust
km/h
Spd
kts
Gust
kts
24/11:30pm 27.4 - - - - ENE 24 30 13 16 1007.0 1006.9 -
24/11:00pm 26.5 - - - - ENE 26 28 14 15 1007.6 1007.5 -
24/10:30pm 27.7 - - - - ENE 30 35 16 19 1007.7 1007.6 -
24/10:00pm 27.5 - - - - ENE 33 39 18 21 1007.7 1007.6 -
24/09:30pm 28.3 - - - - E 39 48 21 26 1007.3 1007.2 -
24/09:00pm 28.4 - - - - E 37 43 20 23 1007.3 1007.2 -
24/08:30pm 28.7 - - - - E 35 44 19 24 1007.3 1007.2 -
24/08:00pm 28.7 - - - - ESE 33 41 18 22 1007.2 1007.1 -
24/07:30pm 28.4 - - - - E 35 43 19 23 1006.7 1006.6 -
24/07:00pm 27.6 - - - - E 33 39 18 21 1006.2 1006.1 -
24/06:30pm 28.5 - - - - E 33 39 18 21 1006.1 1006.0 -
24/06:00pm 28.8 - - - - ESE 33 37 18 20 1006.2 1006.1 -
24/05:30pm 28.4 - - - - ESE 32 37 17 20 1005.9 1005.8 -
24/05:00pm 28.2 - - - - SE 32 35 17 19 1005.6 1005.5 -
24/04:30pm 28.3 - - - - SE 30 35 16 19 1005.3 1005.2 -
24/04:00pm 28.3 - - - - SE 30 33 16 18 1005.6 1005.5 -
24/03:30pm 28.4 - - - - SE 32 35 17 19 1005.7 1005.6 -
24/03:00pm 28.2 - - - - SE 30 35 16 19 1005.7 1005.6 -
24/02:30pm 28.3 - - - - SE 32 35 17 19 1005.9 1005.8 -
24/02:00pm 28.4 - - - - SE 32 35 17 19 1006.0 1005.9 -
24/01:30pm 28.3 - - - - SE 32 35 17 19 1006.2 1006.1 -
24/01:00pm 28.2 - - - - SE 30 35 16 19 1006.7 1006.6 -
24/12:30pm 28.3 - - - - SE 32 35 17 19 1007.1 1007.0 -
24/12:00pm 28.2 - - - - SE 33 39 18 21 1007.4 1007.3 -
24/11:30am 28.3 - - - - SE 30 33 16 18 1008.0 1007.9 -
24/11:00am 28.1 - - - - SE 28 33 15 18 1008.4 1008.3 -
24/10:30am 28.1 - - - - SE 26 30 14 16 1008.6 1008.5 -
24/10:00am 28.2 - - - - ESE 24 28 13 15 1008.6 1008.5 -
24/09:30am 28.2 - - - - ESE 24 28 13 15 1008.5 1008.4 -
24/09:00am 28.0 - - - - ESE 20 24 11 13 1008.2 1008.1 -
24/08:30am 28.0 - - - - ESE 24 28 13 15 1007.9 1007.8 -
24/08:00am 27.9 - - - - E 22 24 12 13 1007.7 1007.6 -
24/07:30am 28.0 - - - - E 20 24 11 13 1007.4 1007.3 -
24/07:00am 28.0 - - - - E 19 22 10 12 1007.0 1006.9 -
24/06:30am 27.8 - - - - E 20 24 11 13 1006.6 1006.5 -
24/06:00am 27.8 - - - - E 20 24 11 13 1006.2 1006.1 -
24/05:30am 27.8 - - - - E 20 24 11 13 1005.9 1005.8 -
24/05:00am 27.8 - - - - E 20 24 11 13 1005.7 1005.6 -
24/04:30am 28.5 - - - - E 20 22 11 12 1005.4 1005.3 -
24/04:00am 28.5 - - - - CALM 0 6 0 3 1005.3 1005.2 -
24/03:30am 27.8 - - - - E 2 6 1 3 1005.4 1005.3 -
24/03:00am 28.6 - - - - ENE 2 6 1 3 1005.7 1005.6 -
24/02:30am 28.7 - - - - E 2 6 1 3 1006.0 1005.9 -
24/02:00am 28.8 - - - - ENE 2 6 1 3 1006.3 1006.2 -
24/01:30am 28.9 - - - - ENE 2 7 1 4 1006.7 1006.6 -
24/01:00am 29.0 - - - - E 2 4 1 2 1007.2 1007.1 -
24/12:30am 29.0 - - - - ENE 2 6 1 3 1007.4 1007.3 -
24/12:00am 29.4 - - - - E 2 7 1 4 1007.5 1007.4 -
 
Date/Time
EST
Temp
°C
App
Temp
°C
Dew
Point
°C
Rel
Hum
%
Delta-T
°C
Wind Press
QNH
hPa
Press
MSL
hPa
Rain since
9am
mm
Dir  Spd
km/h
Gust
km/h
Spd
kts
Gust
kts
23/11:30pm 29.1 - - - - E 2 6 1 3 1007.5 1007.4 -
23/11:00pm 29.0 - - - - CALM 0 4 0 2 1007.5 1007.4 -
23/10:30pm 29.0 - - - - E 9 17 5 9 1007.2 1007.1 -
23/10:00pm 29.1 - - - - CALM 0 4 0 2 1006.9 1006.8 -
23/09:30pm 29.2 - - - - CALM 0 6 0 3 1006.9 1006.8 -
23/09:00pm 29.3 - - - - CALM 0 4 0 2 1006.7 1006.6 -

Other formats

Comma delimited format used in spreadsheet applications
http://www.bom.gov.au/fwo/IDQ60801/IDQ60801.94290.axf

JavaScript Object Notation format (JSON) in row-major order
http://www.bom.gov.au/fwo/IDQ60801/IDQ60801.94290.json

Data quality

Most of these data are generated automatically and are frequently updated. Quality checks on data are not normally performed. It is possible for incorrect values to appear. Refer to information at About Latest Weather Observations and please check the disclaimer before using these data.